createdAt,value
2018-10-09T00:00:18.992Z,0.00
2018-10-09T00:01:18.961Z,0.00
2018-10-09T00:02:18.934Z,0.00
2018-10-09T00:03:18.907Z,0.00
2018-10-09T00:04:18.884Z,0.00
2018-10-09T00:05:18.847Z,0.00
2018-10-09T00:06:18.824Z,0.00
2018-10-09T00:07:18.790Z,0.00
2018-10-09T00:08:18.768Z,0.00
2018-10-09T00:09:18.732Z,0.00
2018-10-09T00:10:18.707Z,0.00
2018-10-09T00:11:18.676Z,0.00
2018-10-09T00:12:18.648Z,0.00
2018-10-09T00:13:18.618Z,0.00
2018-10-09T00:14:18.596Z,0.00
2018-10-09T00:15:18.562Z,0.00
2018-10-09T00:16:18.534Z,0.00
2018-10-09T00:17:18.504Z,0.00
2018-10-09T00:18:18.476Z,0.00
2018-10-09T00:19:18.454Z,0.00
2018-10-09T00:20:18.419Z,0.00
2018-10-09T00:21:18.395Z,0.00
2018-10-09T00:22:18.362Z,0.00
2018-10-09T00:23:18.333Z,0.00
2018-10-09T00:24:18.305Z,0.00
2018-10-09T00:25:18.276Z,0.00
2018-10-09T00:26:18.250Z,0.00
2018-10-09T00:27:18.219Z,0.00
2018-10-09T00:28:18.197Z,0.00
2018-10-09T00:29:18.163Z,0.00
2018-10-09T00:30:18.133Z,0.00
2018-10-09T00:31:18.105Z,0.00
2018-10-09T00:32:18.077Z,0.00
2018-10-09T00:33:18.047Z,0.00
2018-10-09T00:34:18.019Z,0.00
2018-10-09T00:35:17.990Z,0.00
2018-10-09T00:36:17.962Z,0.00
2018-10-09T00:37:17.933Z,0.00
2018-10-09T00:38:17.904Z,0.00
2018-10-09T00:39:17.876Z,0.00
2018-10-09T00:40:17.848Z,0.00
2018-10-09T00:41:17.819Z,0.00
2018-10-09T00:42:17.790Z,0.00
2018-10-09T00:43:17.761Z,0.00
2018-10-09T00:44:17.736Z,0.00
2018-10-09T00:45:17.703Z,0.00
2018-10-09T00:46:17.675Z,0.00
2018-10-09T00:47:17.647Z,0.00
2018-10-09T00:48:17.618Z,0.00
2018-10-09T00:49:17.590Z,0.00
2018-10-09T00:50:17.561Z,0.00
2018-10-09T00:51:17.532Z,0.00
2018-10-09T00:52:17.503Z,0.00
2018-10-09T00:53:17.474Z,0.00
2018-10-09T00:54:17.446Z,0.00
2018-10-09T00:55:17.419Z,0.00
2018-10-09T00:56:17.389Z,0.00
2018-10-09T00:57:17.360Z,0.00
2018-10-09T00:58:17.331Z,0.00
2018-10-09T00:59:17.313Z,0.00
2018-10-09T01:00:17.277Z,0.00
2018-10-09T01:01:17.245Z,0.00
2018-10-09T01:02:17.224Z,0.00
2018-10-09T01:03:17.190Z,0.00
2018-10-09T01:04:17.160Z,0.00
2018-10-09T01:05:17.131Z,0.00
2018-10-09T01:06:17.102Z,0.00
2018-10-09T01:07:17.074Z,0.00
2018-10-09T01:08:17.046Z,0.00
2018-10-09T01:09:17.100Z,0.00
2018-10-09T01:10:16.991Z,0.00
2018-10-09T01:11:16.959Z,0.00
2018-10-09T01:12:16.931Z,0.00
2018-10-09T01:13:16.903Z,0.00
2018-10-09T01:14:16.878Z,0.00
2018-10-09T01:15:16.845Z,0.00
2018-10-09T01:16:16.818Z,0.00
2018-10-09T01:17:16.788Z,0.00
2018-10-09T01:18:16.758Z,0.00
2018-10-09T01:19:16.731Z,0.00
2018-10-09T01:20:16.705Z,0.00
2018-10-09T01:21:16.672Z,0.00
2018-10-09T01:22:16.645Z,0.00
2018-10-09T01:23:16.615Z,0.00
2018-10-09T01:24:16.588Z,0.00
2018-10-09T01:25:16.560Z,0.00
2018-10-09T01:26:16.530Z,0.00
2018-10-09T01:27:16.502Z,0.00
2018-10-09T01:28:16.475Z,0.00
2018-10-09T01:29:16.444Z,0.00
2018-10-09T01:30:16.417Z,0.00
2018-10-09T01:31:16.388Z,0.00
2018-10-09T01:32:16.360Z,0.00
2018-10-09T01:33:16.330Z,0.00
2018-10-09T01:34:16.309Z,0.00
2018-10-09T01:35:16.276Z,0.00
2018-10-09T01:36:16.245Z,0.00
2018-10-09T01:37:16.217Z,0.00
2018-10-09T01:38:16.189Z,0.00
2018-10-09T01:39:16.163Z,0.00
2018-10-09T01:40:16.131Z,0.00
2018-10-09T01:41:16.103Z,0.00
2018-10-09T01:42:16.076Z,0.00
2018-10-09T01:43:16.049Z,0.00
2018-10-09T01:44:16.018Z,0.00
2018-10-09T01:45:15.989Z,0.00
2018-10-09T01:46:15.961Z,0.00
2018-10-09T01:47:15.936Z,0.00
2018-10-09T01:48:15.904Z,0.00
2018-10-09T01:49:15.876Z,0.00
2018-10-09T01:50:15.845Z,0.00
2018-10-09T01:51:15.819Z,0.00
2018-10-09T01:52:15.791Z,0.00
2018-10-09T01:53:15.762Z,0.00
2018-10-09T01:54:15.734Z,0.00
2018-10-09T01:55:16.105Z,0.00
2018-10-09T01:56:15.676Z,0.00
2018-10-09T01:57:15.650Z,0.00
2018-10-09T01:58:15.621Z,0.00
2018-10-09T01:59:15.590Z,0.00
2018-10-09T02:00:15.562Z,0.00
2018-10-09T02:01:15.532Z,0.00
2018-10-09T02:02:15.505Z,0.00
2018-10-09T02:03:15.481Z,0.00
2018-10-09T02:04:15.450Z,0.00
2018-10-09T02:05:15.427Z,0.00
2018-10-09T02:06:15.394Z,0.00
2018-10-09T02:07:15.363Z,0.00
2018-10-09T02:08:15.335Z,0.00
2018-10-09T02:09:15.306Z,0.00
2018-10-09T02:10:15.279Z,0.00
2018-10-09T02:11:15.251Z,0.00
2018-10-09T02:12:15.225Z,0.00
2018-10-09T02:13:15.195Z,0.00
2018-10-09T02:14:15.166Z,0.00
2018-10-09T02:15:15.140Z,0.00
2018-10-09T02:16:15.111Z,0.00
2018-10-09T02:17:15.080Z,0.00
2018-10-09T02:18:15.053Z,0.00
2018-10-09T02:19:15.022Z,0.00
2018-10-09T02:20:14.994Z,0.00
2018-10-09T02:21:14.965Z,0.00
2018-10-09T02:22:14.940Z,0.00
2018-10-09T02:23:14.911Z,0.00
2018-10-09T02:24:14.882Z,0.00
2018-10-09T02:25:14.861Z,0.00
2018-10-09T02:26:14.825Z,0.00
2018-10-09T02:27:14.794Z,0.00
2018-10-09T02:28:14.771Z,0.00
2018-10-09T02:29:14.737Z,0.00
2018-10-09T02:30:14.709Z,0.00
2018-10-09T02:31:14.682Z,0.00
2018-10-09T02:32:14.654Z,0.00
2018-10-09T02:33:14.627Z,0.00
2018-10-09T02:34:14.597Z,0.00
2018-10-09T02:35:14.569Z,0.00
2018-10-09T02:36:14.539Z,0.00
2018-10-09T02:37:14.508Z,0.00
2018-10-09T02:38:14.480Z,0.00
2018-10-09T02:39:14.455Z,0.00
2018-10-09T02:40:14.425Z,0.00
2018-10-09T02:41:14.396Z,0.00
2018-10-09T02:42:14.369Z,0.00
2018-10-09T02:43:14.337Z,0.00
2018-10-09T02:44:14.311Z,0.00
2018-10-09T02:45:14.279Z,0.00
2018-10-09T02:46:14.253Z,0.00
2018-10-09T02:47:14.225Z,0.00
2018-10-09T02:48:14.193Z,0.00
2018-10-09T02:49:14.164Z,0.00
2018-10-09T02:50:14.135Z,0.00
2018-10-09T02:51:14.111Z,0.00
2018-10-09T02:52:14.081Z,0.00
2018-10-09T02:53:14.051Z,0.00
2018-10-09T02:54:14.023Z,0.00
2018-10-09T02:55:13.995Z,0.00
2018-10-09T02:56:13.970Z,0.00
2018-10-09T02:57:13.935Z,0.00
2018-10-09T02:58:13.909Z,0.00
2018-10-09T02:59:13.883Z,0.00
2018-10-09T03:00:13.851Z,0.00
2018-10-09T03:01:13.822Z,0.00
2018-10-09T03:02:13.795Z,0.00
2018-10-09T03:03:13.765Z,0.00
2018-10-09T03:04:13.741Z,0.00
2018-10-09T03:05:13.712Z,0.00
2018-10-09T03:06:13.678Z,0.00
2018-10-09T03:07:13.651Z,0.00
2018-10-09T03:08:13.619Z,0.00
2018-10-09T03:09:13.593Z,0.00
2018-10-09T03:10:13.566Z,0.00
2018-10-09T03:11:13.538Z,0.00
2018-10-09T03:12:13.506Z,0.00
2018-10-09T03:13:13.477Z,0.00
2018-10-09T03:14:13.449Z,0.00
2018-10-09T03:15:13.417Z,0.00
2018-10-09T03:16:13.389Z,0.00
2018-10-09T03:17:13.359Z,0.00
2018-10-09T03:18:13.330Z,0.00
2018-10-09T03:19:13.314Z,0.00
2018-10-09T03:20:13.276Z,0.00
2018-10-09T03:21:13.245Z,0.00
2018-10-09T03:22:13.218Z,0.00
2018-10-09T03:23:13.190Z,0.00
2018-10-09T03:24:13.160Z,0.00
2018-10-09T03:25:13.134Z,0.00
2018-10-09T03:26:13.102Z,0.00
2018-10-09T03:27:13.074Z,0.00
2018-10-09T03:28:13.042Z,0.00
2018-10-09T03:29:13.016Z,0.00
2018-10-09T03:30:12.985Z,0.00
2018-10-09T03:31:12.960Z,0.00
2018-10-09T03:32:12.929Z,0.00
2018-10-09T03:33:12.898Z,0.00
2018-10-09T03:34:12.870Z,0.00
2018-10-09T03:35:12.843Z,0.00
2018-10-09T03:36:12.829Z,0.00
2018-10-09T03:37:12.788Z,0.00
2018-10-09T03:38:12.766Z,0.00
2018-10-09T03:39:12.724Z,0.00
2018-10-09T03:40:12.694Z,0.00
2018-10-09T03:41:12.665Z,0.00
2018-10-09T03:42:12.636Z,0.00
2018-10-09T03:43:12.611Z,0.00
2018-10-09T03:44:12.585Z,0.00
2018-10-09T03:45:12.551Z,0.00
2018-10-09T03:46:12.526Z,0.00
2018-10-09T03:47:12.491Z,0.00
2018-10-09T03:48:12.467Z,0.00
2018-10-09T03:49:12.438Z,0.00
2018-10-09T03:50:12.404Z,0.00
2018-10-09T03:51:12.377Z,0.00
2018-10-09T03:52:12.348Z,0.00
2018-10-09T03:53:12.317Z,0.00
2018-10-09T03:54:12.289Z,0.00
2018-10-09T03:55:12.266Z,0.00
2018-10-09T03:56:12.233Z,0.00
2018-10-09T03:57:12.203Z,0.00
2018-10-09T03:58:12.179Z,0.00
2018-10-09T03:59:12.144Z,0.00
2018-10-09T04:00:12.116Z,0.00
2018-10-09T04:01:12.085Z,0.00
2018-10-09T04:02:12.061Z,0.00
2018-10-09T04:03:12.030Z,0.00
2018-10-09T04:04:12.001Z,0.00
2018-10-09T04:05:11.972Z,0.00
2018-10-09T04:06:11.942Z,0.00
2018-10-09T04:07:11.914Z,0.00
2018-10-09T04:08:11.885Z,0.00
2018-10-09T04:09:11.891Z,0.00
2018-10-09T04:10:11.827Z,0.00
2018-10-09T04:11:11.800Z,0.00
2018-10-09T04:12:11.769Z,0.00
2018-10-09T04:13:11.738Z,0.00
2018-10-09T04:14:11.709Z,0.00
2018-10-09T04:15:11.683Z,0.00
2018-10-09T04:16:11.656Z,0.00
2018-10-09T04:17:11.625Z,0.00
2018-10-09T04:18:11.595Z,0.00
2018-10-09T04:19:11.566Z,0.00
2018-10-09T04:20:11.539Z,0.00
2018-10-09T04:21:11.506Z,0.00
2018-10-09T04:22:11.477Z,0.00
2018-10-09T04:23:11.449Z,0.00
2018-10-09T04:24:11.420Z,0.00
2018-10-09T04:25:11.391Z,0.00
2018-10-09T04:26:11.363Z,0.00
2018-10-09T04:27:11.339Z,0.00
2018-10-09T04:28:11.307Z,0.00
2018-10-09T04:29:11.283Z,0.00
2018-10-09T04:30:11.248Z,0.00
2018-10-09T04:31:11.217Z,0.00
2018-10-09T04:32:11.188Z,0.00
2018-10-09T04:33:11.159Z,0.00
2018-10-09T04:34:11.131Z,0.00
2018-10-09T04:35:11.160Z,0.00
2018-10-09T04:36:11.075Z,0.00
2018-10-09T04:37:11.045Z,0.00
2018-10-09T04:38:11.015Z,0.00
2018-10-09T04:39:10.986Z,0.00
2018-10-09T04:40:10.961Z,0.00
2018-10-09T04:41:10.933Z,0.00
2018-10-09T04:42:10.898Z,0.00
2018-10-09T04:43:10.873Z,0.00
2018-10-09T04:44:10.845Z,0.00
2018-10-09T04:45:10.812Z,0.00
2018-10-09T04:46:10.785Z,0.00
2018-10-09T04:47:10.752Z,0.00
2018-10-09T04:48:10.726Z,0.00
2018-10-09T04:49:10.694Z,0.00
2018-10-09T04:50:10.665Z,0.00
2018-10-09T04:51:10.638Z,0.00
2018-10-09T04:52:10.615Z,0.00
2018-10-09T04:53:10.624Z,0.00
2018-10-09T04:54:10.559Z,0.00
2018-10-09T04:55:10.522Z,0.00
2018-10-09T04:56:10.498Z,0.00
2018-10-09T04:57:10.463Z,0.00
2018-10-09T04:58:10.439Z,0.00
2018-10-09T04:59:10.439Z,0.00
2018-10-09T05:00:10.375Z,0.00
2018-10-09T05:01:10.349Z,0.00
2018-10-09T05:02:10.316Z,0.00
2018-10-09T05:03:10.293Z,0.00
2018-10-09T05:04:10.268Z,0.00
2018-10-09T05:05:10.232Z,0.00
2018-10-09T05:06:10.203Z,0.00
2018-10-09T05:07:10.173Z,0.00
2018-10-09T05:08:10.142Z,0.00
2018-10-09T05:09:10.112Z,0.00
2018-10-09T05:10:10.086Z,0.00
2018-10-09T05:11:10.054Z,0.00
2018-10-09T05:12:10.026Z,0.00
2018-10-09T05:13:09.995Z,0.00
2018-10-09T05:14:09.972Z,0.00
2018-10-09T05:15:09.943Z,0.00
2018-10-09T05:16:09.911Z,0.00
2018-10-09T05:17:09.882Z,0.00
2018-10-09T05:18:09.853Z,0.00
2018-10-09T05:19:09.822Z,0.00
2018-10-09T05:20:09.793Z,5.63
2018-10-09T05:21:09.763Z,5.63
2018-10-09T05:22:09.734Z,5.63
2018-10-09T05:23:09.716Z,5.63
2018-10-09T05:24:09.681Z,5.63
2018-10-09T05:25:09.650Z,5.63
2018-10-09T05:26:09.621Z,5.63
2018-10-09T05:27:09.592Z,5.63
2018-10-09T05:28:09.563Z,5.63
2018-10-09T05:29:09.533Z,5.63
2018-10-09T05:30:09.505Z,5.63
2018-10-09T05:31:09.550Z,11.25
2018-10-09T05:32:09.445Z,11.25
2018-10-09T05:33:09.415Z,11.25
2018-10-09T05:34:09.389Z,11.25
2018-10-09T05:35:09.359Z,16.88
2018-10-09T05:36:09.332Z,16.88
2018-10-09T05:37:09.306Z,16.88
2018-10-09T05:38:09.278Z,16.88
2018-10-09T05:39:09.242Z,22.50
2018-10-09T05:40:09.213Z,22.50
2018-10-09T05:41:09.183Z,28.13
2018-10-09T05:42:09.156Z,28.13
2018-10-09T05:43:09.131Z,33.75
2018-10-09T05:44:09.107Z,39.38
2018-10-09T05:45:09.071Z,39.38
2018-10-09T05:46:09.041Z,45.00
2018-10-09T05:47:09.010Z,45.00
2018-10-09T05:48:08.983Z,45.00
2018-10-09T05:49:08.951Z,50.63
2018-10-09T05:50:08.922Z,56.25
2018-10-09T05:51:08.903Z,56.25
2018-10-09T05:52:08.867Z,61.88
2018-10-09T05:53:08.849Z,67.50
2018-10-09T05:54:08.809Z,67.50
2018-10-09T05:55:08.786Z,67.50
2018-10-09T05:56:08.749Z,73.13
2018-10-09T05:57:08.719Z,78.75
2018-10-09T05:58:08.758Z,84.38
2018-10-09T05:59:08.666Z,90.00
2018-10-09T06:00:08.636Z,90.00
2018-10-09T06:01:08.603Z,95.63
2018-10-09T06:02:08.574Z,101.25
2018-10-09T06:03:08.550Z,106.88
2018-10-09T06:04:08.519Z,112.50
2018-10-09T06:05:08.495Z,118.13
2018-10-09T06:06:08.468Z,123.75
2018-10-09T06:07:08.431Z,123.75
2018-10-09T06:08:08.407Z,129.38
2018-10-09T06:09:08.376Z,129.38
2018-10-09T06:10:08.347Z,135.00
2018-10-09T06:11:08.317Z,135.00
2018-10-09T06:12:08.288Z,140.63
2018-10-09T06:13:08.259Z,140.63
2018-10-09T06:14:08.232Z,140.63
2018-10-09T06:15:08.202Z,140.63
2018-10-09T06:16:08.177Z,146.25
2018-10-09T06:17:08.143Z,146.25
2018-10-09T06:18:08.115Z,146.25
2018-10-09T06:19:08.084Z,151.88
2018-10-09T06:20:08.057Z,151.88
2018-10-09T06:21:08.027Z,157.50
2018-10-09T06:22:08.046Z,163.13
2018-10-09T06:23:07.971Z,163.13
2018-10-09T06:24:07.944Z,174.38
2018-10-09T06:25:07.913Z,174.38
2018-10-09T06:26:07.884Z,180.00
2018-10-09T06:27:07.857Z,185.63
2018-10-09T06:28:08.024Z,191.25
2018-10-09T06:29:07.797Z,196.88
2018-10-09T06:30:07.767Z,196.88
2018-10-09T06:31:07.739Z,202.50
2018-10-09T06:32:07.714Z,208.13
2018-10-09T06:33:07.681Z,208.13
2018-10-09T06:34:07.731Z,208.13
2018-10-09T06:35:07.626Z,213.75
2018-10-09T06:36:07.601Z,219.38
2018-10-09T06:37:07.590Z,230.63
2018-10-09T06:38:07.541Z,236.25
2018-10-09T06:39:07.510Z,247.50
2018-10-09T06:40:07.481Z,253.13
2018-10-09T06:41:07.451Z,264.38
2018-10-09T06:42:07.423Z,264.38
2018-10-09T06:43:07.400Z,270.00
2018-10-09T06:44:07.375Z,275.63
2018-10-09T06:45:07.339Z,286.88
2018-10-09T06:46:07.311Z,298.13
2018-10-09T06:47:07.290Z,309.38
2018-10-09T06:48:07.258Z,326.25
2018-10-09T06:49:07.223Z,348.75
2018-10-09T06:50:07.195Z,371.25
2018-10-09T06:51:07.169Z,410.63
2018-10-09T06:52:07.347Z,455.63
2018-10-09T06:53:07.111Z,534.38
2018-10-09T06:54:07.283Z,545.63
2018-10-09T06:55:07.255Z,483.75
2018-10-09T06:56:07.227Z,444.38
2018-10-09T06:57:07.199Z,438.75
2018-10-09T06:58:07.171Z,455.63
2018-10-09T06:59:06.942Z,472.50
2018-10-09T07:00:06.940Z,483.75
2018-10-09T07:01:07.096Z,551.25
2018-10-09T07:02:06.859Z,804.38
2018-10-09T07:03:07.032Z,900.00
2018-10-09T07:04:06.806Z,939.38
2018-10-09T07:05:06.775Z,804.38
2018-10-09T07:06:06.751Z,843.75
2018-10-09T07:07:06.724Z,1080.00
2018-10-09T07:08:06.699Z,1057.50
2018-10-09T07:09:49.620Z,1108.13
2018-10-09T07:10:48.987Z,1136.25
2018-10-09T07:11:48.764Z,1147.50
2018-10-09T07:12:48.739Z,1130.63
2018-10-09T07:13:48.705Z,1164.38
2018-10-09T07:14:48.680Z,1170.00
2018-10-09T07:15:48.652Z,1186.88
2018-10-09T07:16:48.644Z,1164.38
2018-10-09T07:17:48.609Z,1203.75
2018-10-09T07:18:48.572Z,1175.63
2018-10-09T07:19:48.546Z,1181.25
2018-10-09T07:21:30.876Z,922.50
2018-10-09T07:22:30.848Z,1018.13
2018-10-09T07:23:30.620Z,1102.50
2018-10-09T07:24:30.598Z,1130.63
2018-10-09T07:25:30.775Z,1170.00
2018-10-09T07:26:30.547Z,1175.63
2018-10-09T07:27:30.527Z,1153.13
2018-10-09T07:28:30.496Z,1040.63
2018-10-09T07:29:30.475Z,866.25
2018-10-09T07:30:30.479Z,748.13
2018-10-09T07:31:30.422Z,663.75
2018-10-09T07:32:30.401Z,590.63
2018-10-09T07:33:30.376Z,534.38
2018-10-09T07:34:30.351Z,517.50
2018-10-09T07:35:30.326Z,540.00
2018-10-09T07:36:30.302Z,601.88
2018-10-09T07:37:30.318Z,832.50
2018-10-09T07:38:30.252Z,1158.75
2018-10-09T07:39:30.537Z,1288.13
2018-10-09T07:40:30.201Z,1192.50
2018-10-09T07:41:30.176Z,1113.75
2018-10-09T07:42:30.151Z,1164.38
2018-10-09T07:43:30.127Z,1316.25
2018-10-09T07:44:30.103Z,1299.38
2018-10-09T07:45:30.383Z,990.00
2018-10-09T07:46:30.055Z,1254.38
2018-10-09T07:47:30.029Z,1423.13
2018-10-09T07:48:30.004Z,1378.13
2018-10-09T07:49:29.981Z,1372.50
2018-10-09T07:50:29.959Z,1378.13
2018-10-09T07:51:29.932Z,1321.88
2018-10-09T07:52:29.908Z,1299.38
2018-10-09T07:53:29.885Z,1282.50
2018-10-09T07:54:29.868Z,1231.88
2018-10-09T07:55:29.839Z,1102.50
2018-10-09T07:56:29.819Z,1119.38
2018-10-09T07:57:29.793Z,1147.50
2018-10-09T07:58:29.809Z,1215.00
2018-10-09T07:59:29.747Z,1518.75
2018-10-09T08:00:29.722Z,1361.25
2018-10-09T08:01:29.901Z,1192.50
2018-10-09T08:02:29.675Z,1192.50
2018-10-09T08:03:29.656Z,1490.63
2018-10-09T08:04:29.642Z,1800.00
2018-10-09T08:05:29.812Z,1749.38
2018-10-09T08:06:29.588Z,1400.63
2018-10-09T08:07:29.563Z,1575.00
2018-10-09T08:08:29.541Z,1366.88
2018-10-09T08:09:30.072Z,1423.13
2018-10-09T08:10:29.707Z,1552.50
2018-10-09T08:11:29.475Z,1096.88
2018-10-09T08:12:29.450Z,1051.88
2018-10-09T08:13:29.439Z,1029.38
2018-10-09T08:14:29.406Z,1068.75
2018-10-09T08:15:29.436Z,990.00
2018-10-09T08:16:29.450Z,967.50
2018-10-09T08:17:29.341Z,956.25
2018-10-09T08:18:29.317Z,950.63
2018-10-09T08:19:29.295Z,956.25
2018-10-09T08:20:29.270Z,961.88
2018-10-09T08:21:29.248Z,967.50
2018-10-09T08:22:29.314Z,973.13
2018-10-09T08:23:29.205Z,978.75
2018-10-09T08:24:29.186Z,978.75
2018-10-09T08:25:29.160Z,978.75
2018-10-09T08:26:29.137Z,984.38
2018-10-09T08:27:29.113Z,984.38
2018-10-09T08:28:29.098Z,990.00
2018-10-09T08:29:29.067Z,995.63
2018-10-09T08:30:29.446Z,1001.25
2018-10-09T08:31:29.023Z,1006.88
2018-10-09T08:32:29.002Z,1006.88
2018-10-09T08:33:29.179Z,1012.50
2018-10-09T08:34:29.204Z,1018.13
2018-10-09T08:35:28.928Z,1012.50
2018-10-09T08:36:29.122Z,1012.50
2018-10-09T08:37:28.879Z,1012.50
2018-10-09T08:38:28.854Z,1012.50
2018-10-09T08:39:28.832Z,1012.50
2018-10-09T08:40:28.953Z,1006.88
2018-10-09T08:41:28.785Z,1001.25
2018-10-09T08:42:28.759Z,995.63
2018-10-09T08:43:28.738Z,990.00
2018-10-09T08:44:28.716Z,990.00
2018-10-09T08:45:28.696Z,978.75
2018-10-09T08:46:28.668Z,978.75
2018-10-09T08:47:28.644Z,984.38
2018-10-09T08:48:28.625Z,990.00
2018-10-09T08:49:28.598Z,995.63
2018-10-09T08:50:28.575Z,1001.25
2018-10-09T08:51:28.547Z,1001.25
2018-10-09T08:52:28.524Z,1006.88
2018-10-09T08:53:28.505Z,1006.88
2018-10-09T08:54:28.476Z,1001.25
2018-10-09T08:55:28.453Z,1001.25
2018-10-09T08:56:28.429Z,1006.88
2018-10-09T08:57:28.433Z,1006.88
2018-10-09T08:58:28.381Z,1006.88
2018-10-09T08:59:28.358Z,1018.13
2018-10-09T09:00:28.331Z,1035.00
2018-10-09T09:01:28.309Z,1046.25
2018-10-09T09:02:28.282Z,1063.13
2018-10-09T09:03:28.275Z,1068.75
2018-10-09T09:04:28.237Z,1091.25
2018-10-09T09:05:28.211Z,1113.75
2018-10-09T09:06:28.187Z,1125.00
2018-10-09T09:07:28.164Z,1141.88
2018-10-09T09:08:28.136Z,1158.75
2018-10-09T09:09:28.134Z,1164.38
2018-10-09T09:10:28.091Z,1198.13
2018-10-09T09:11:28.063Z,1231.88
2018-10-09T09:12:28.044Z,1316.25
2018-10-09T09:13:28.029Z,1372.50
2018-10-09T09:14:27.990Z,1715.63
2018-10-09T09:15:27.975Z,1861.88
2018-10-09T09:16:27.945Z,2193.75
2018-10-09T09:17:27.921Z,2002.50
2018-10-09T09:18:27.896Z,1895.63
2018-10-09T09:19:27.873Z,2008.13
2018-10-09T09:20:27.876Z,2013.75
2018-10-09T09:21:27.833Z,1901.25
2018-10-09T09:22:27.801Z,1755.00
2018-10-09T09:23:27.777Z,1175.63
2018-10-09T09:24:27.757Z,1181.25
2018-10-09T09:25:27.740Z,1310.63
2018-10-09T09:26:27.722Z,1383.75
2018-10-09T09:27:27.792Z,1350.00
2018-10-09T09:28:27.666Z,1378.13
2018-10-09T09:29:27.645Z,1524.38
2018-10-09T09:30:27.621Z,1603.13
2018-10-09T09:31:27.597Z,1749.38
2018-10-09T09:32:27.574Z,1794.38
2018-10-09T09:33:27.850Z,1873.13
2018-10-09T09:34:27.530Z,1895.63
2018-10-09T09:35:27.503Z,1895.63
2018-10-09T09:36:27.688Z,1895.63
2018-10-09T09:37:27.471Z,1935.00
2018-10-09T09:38:27.438Z,2002.50
2018-10-09T09:39:27.618Z,2025.00
2018-10-09T09:40:27.595Z,2109.38
2018-10-09T09:41:27.374Z,2025.00
2018-10-09T09:42:27.348Z,1783.13
2018-10-09T09:43:27.327Z,1687.50
2018-10-09T09:44:27.302Z,1811.25
2018-10-09T09:46:09.655Z,2036.25
2018-10-09T09:47:09.422Z,1800.00
2018-10-09T09:48:09.390Z,2019.38
2018-10-09T09:49:09.372Z,1929.38
2018-10-09T09:50:09.357Z,1946.25
2018-10-09T09:51:09.328Z,1929.38
2018-10-09T09:52:09.386Z,1676.25
2018-10-09T09:53:09.282Z,1738.13
2018-10-09T09:54:09.269Z,1963.13
2018-10-09T09:55:09.240Z,1788.75
2018-10-09T09:56:09.218Z,1501.88
2018-10-09T09:57:09.400Z,1440.00
2018-10-09T09:58:09.338Z,1417.50
2018-10-09T09:59:09.300Z,1569.38
2018-10-09T10:00:09.138Z,1546.88
2018-10-09T10:01:09.111Z,1350.00
2018-10-09T10:02:09.293Z,1440.00
2018-10-09T10:03:09.067Z,1546.88
2018-10-09T10:04:09.051Z,1546.88
2018-10-09T10:05:09.021Z,1327.50
2018-10-09T10:06:08.998Z,1389.38
2018-10-09T10:07:08.980Z,1434.38
2018-10-09T10:08:08.976Z,1400.63
2018-10-09T10:09:08.984Z,1603.13
2018-10-09T10:10:08.913Z,1800.00
2018-10-09T10:11:08.889Z,1845.00
2018-10-09T10:12:08.870Z,2019.38
2018-10-09T10:13:08.844Z,2036.25
2018-10-09T10:14:08.821Z,2283.75
2018-10-09T10:15:08.801Z,2435.63
2018-10-09T10:16:08.776Z,2469.38
2018-10-09T10:17:08.757Z,2401.88
2018-10-09T10:18:08.732Z,2536.88
2018-10-09T10:19:08.714Z,2463.75
2018-10-09T10:20:08.687Z,2548.13
2018-10-09T10:21:08.667Z,2587.50
2018-10-09T10:22:08.647Z,2581.88
2018-10-09T10:23:50.977Z,2413.13
2018-10-09T10:24:50.769Z,2463.75
2018-10-09T10:25:50.733Z,2626.88
2018-10-09T10:26:50.713Z,2581.88
2018-10-09T10:27:50.692Z,2227.50
2018-10-09T10:28:50.673Z,2542.50
2018-10-09T10:29:50.656Z,2621.25
2018-10-09T10:30:50.630Z,2536.88
2018-10-09T10:31:50.606Z,2491.88
2018-10-09T10:32:50.787Z,2250.00
2018-10-09T10:33:50.570Z,1980.00
2018-10-09T10:34:50.545Z,2216.25
2018-10-09T10:35:50.728Z,1777.50
2018-10-09T10:36:50.672Z,2233.13
2018-10-09T10:37:50.484Z,2103.75
2018-10-09T10:38:50.460Z,1867.50
2018-10-09T10:39:50.441Z,1535.63
2018-10-09T10:40:50.621Z,1518.75
2018-10-09T10:41:50.397Z,1535.63
2018-10-09T10:42:50.378Z,1845.00
2018-10-09T10:43:50.355Z,1957.50
2018-10-09T10:44:50.332Z,1861.88
2018-10-09T10:45:50.361Z,1980.00
2018-10-09T10:46:50.386Z,1788.75
2018-10-09T10:47:50.271Z,2266.88
2018-10-09T10:48:50.283Z,1985.63
2018-10-09T10:49:50.229Z,2070.00
2018-10-09T10:50:50.208Z,1822.50
2018-10-09T10:51:50.326Z,2058.75
2018-10-09T10:52:50.165Z,2435.63
2018-10-09T10:53:50.148Z,2317.50
2018-10-09T10:54:50.168Z,2199.38
2018-10-09T10:55:50.098Z,2058.75
2018-10-09T10:56:50.156Z,1580.63
2018-10-09T10:57:50.055Z,1940.63
2018-10-09T10:58:50.043Z,1569.38
2018-10-09T10:59:50.016Z,1918.13
2018-10-09T11:00:49.993Z,1951.88
2018-10-09T11:01:50.134Z,2137.50
2018-10-09T11:02:49.949Z,2306.25
2018-10-09T11:03:49.978Z,2272.50
2018-10-09T11:04:49.907Z,1974.38
2018-10-09T11:05:49.888Z,1704.38
2018-10-09T11:06:49.886Z,2053.13
2018-10-09T11:07:49.875Z,2536.88
2018-10-09T11:08:49.823Z,2205.00
2018-10-09T11:09:49.806Z,2638.13
2018-10-09T11:10:49.782Z,2835.00
2018-10-09T11:11:49.762Z,2823.75
2018-10-09T11:12:49.743Z,2913.75
2018-10-09T11:13:49.719Z,2835.00
2018-10-09T11:14:49.776Z,2711.25
2018-10-09T11:15:49.688Z,2840.63
2018-10-09T11:16:49.864Z,2756.25
2018-10-09T11:17:49.637Z,2553.75
2018-10-09T11:18:49.820Z,2542.50
2018-10-09T11:19:49.611Z,2581.88
2018-10-09T11:20:49.584Z,2514.38
2018-10-09T11:21:49.761Z,2452.50
2018-10-09T11:22:49.945Z,2362.50
2018-10-09T11:23:53.154Z,2255.63
2018-10-09T11:24:49.498Z,2261.25
2018-10-09T11:25:49.479Z,2610.00
2018-10-09T11:26:49.464Z,2700.00
2018-10-09T11:27:49.444Z,2671.88
2018-10-09T11:28:49.420Z,2846.25
2018-10-09T11:29:49.409Z,2835.00
2018-10-09T11:30:49.379Z,2598.75
2018-10-09T11:31:49.359Z,2587.50
2018-10-09T11:32:49.339Z,2728.13
2018-10-09T11:33:49.323Z,2846.25
2018-10-09T11:34:49.302Z,2964.38
2018-10-09T11:35:49.491Z,3026.25
2018-10-09T11:36:49.464Z,3026.25
2018-10-09T11:37:49.450Z,2795.63
2018-10-09T11:40:55.887Z,2913.75
2018-10-09T11:41:55.868Z,2756.25
2018-10-09T11:42:55.913Z,2030.63
2018-10-09T11:43:55.834Z,2576.25
2018-10-09T11:44:55.816Z,2683.13
2018-10-09T11:45:55.591Z,2615.63
2018-10-09T11:46:55.621Z,2334.38
2018-10-09T11:47:55.549Z,2340.00
2018-10-09T11:48:55.733Z,2306.25
2018-10-09T11:49:55.724Z,2497.50
2018-10-09T11:50:55.491Z,2497.50
2018-10-09T11:51:55.475Z,2103.75
2018-10-09T11:52:55.663Z,2041.88
2018-10-09T11:53:55.436Z,1490.63
2018-10-09T11:54:58.301Z,1215.00
2018-10-09T11:55:55.599Z,1276.88
2018-10-09T11:56:55.579Z,1805.63
2018-10-09T11:57:55.558Z,2205.00
2018-10-09T11:58:55.400Z,2131.88
2018-10-09T11:59:55.324Z,2188.13
2018-10-09T12:00:55.294Z,1788.75
2018-10-09T12:01:55.275Z,1175.63
2018-10-09T12:02:55.274Z,2041.88
2018-10-09T12:03:55.287Z,2469.38
2018-10-09T12:04:55.218Z,2283.75
2018-10-09T12:05:55.274Z,2373.75
2018-10-09T12:06:55.174Z,2356.88
2018-10-09T12:07:55.158Z,2041.88
2018-10-09T12:08:55.135Z,2143.13
2018-10-09T12:09:55.114Z,2103.75
2018-10-09T12:10:55.096Z,1828.13
2018-10-09T12:11:55.079Z,1940.63
2018-10-09T12:12:55.057Z,2081.25
2018-10-09T12:13:55.037Z,1996.88
2018-10-09T12:14:55.018Z,1946.25
2018-10-09T12:15:55.056Z,1951.88
2018-10-09T12:16:54.985Z,1833.75
2018-10-09T12:17:54.960Z,1749.38
2018-10-09T12:18:54.943Z,1653.75
2018-10-09T12:19:54.925Z,1597.50
2018-10-09T12:20:54.900Z,1563.75
2018-10-09T12:21:54.885Z,1676.25
2018-10-09T12:22:54.872Z,1687.50
2018-10-09T12:23:54.839Z,1738.13
2018-10-09T12:24:54.821Z,1783.13
2018-10-09T12:25:54.804Z,1805.63
2018-10-09T12:27:37.137Z,2295.00
2018-10-09T12:28:37.119Z,2486.25
2018-10-09T12:29:37.111Z,2430.00
2018-10-09T12:30:37.081Z,2340.00
2018-10-09T12:32:19.216Z,2356.88
2018-10-09T12:33:19.195Z,2418.75
2018-10-09T12:34:19.178Z,2463.75
2018-10-09T12:35:19.158Z,2469.38
2018-10-09T12:36:19.138Z,2368.13
2018-10-09T12:37:18.928Z,2311.88
2018-10-09T12:38:18.908Z,2458.13
2018-10-09T12:39:19.086Z,2446.88
2018-10-09T12:41:01.217Z,2655.00
2018-10-09T12:42:00.996Z,2570.63
2018-10-09T12:43:01.178Z,2626.88
2018-10-09T12:44:01.101Z,2666.25
2018-10-09T12:45:00.963Z,2604.38
2018-10-09T12:46:01.124Z,2565.00
2018-10-09T12:47:01.116Z,2503.13